sensor_id;sensor_type;location;lat;lon;timestamp;temperature;humidity
46608;DHT22;32330;51.936;7.184;2023-05-10T03:50:19;13.40;99.90
46608;DHT22;32330;51.936;7.184;2023-05-10T03:52:47;13.40;99.90
46608;DHT22;32330;51.936;7.184;2023-05-10T03:55:14;13.40;99.90
46608;DHT22;32330;51.936;7.184;2023-05-10T03:57:41;13.30;99.90
46608;DHT22;32330;51.936;7.184;2023-05-10T04:00:09;13.30;99.90
46608;DHT22;32330;51.936;7.184;2023-05-10T04:02:42;13.30;99.90
46608;DHT22;32330;51.936;7.184;2023-05-10T04:05:13;13.30;99.90
46608;DHT22;32330;51.936;7.184;2023-05-10T04:07:42;13.40;99.90
46608;DHT22;32330;51.936;7.184;2023-05-10T04:10:10;13.40;99.90
46608;DHT22;32330;51.936;7.184;2023-05-10T04:12:37;13.40;99.90
46608;DHT22;32330;51.936;7.184;2023-05-10T04:15:04;13.50;99.90
46608;DHT22;32330;51.936;7.184;2023-05-10T04:17:32;13.40;99.90
46608;DHT22;32330;51.936;7.184;2023-05-10T04:19:58;13.50;99.90
46608;DHT22;32330;51.936;7.184;2023-05-10T04:22:25;13.50;99.90
46608;DHT22;32330;51.936;7.184;2023-05-10T04:24:54;13.40;99.90
46608;DHT22;32330;51.936;7.184;2023-05-10T04:27:21;13.50;99.90
46608;DHT22;32330;51.936;7.184;2023-05-10T04:29:48;13.50;99.90
46608;DHT22;32330;51.936;7.184;2023-05-10T04:32:15;13.40;99.90
46608;DHT22;32330;51.936;7.184;2023-05-10T04:34:42;13.40;99.90
46608;DHT22;32330;51.936;7.184;2023-05-10T04:37:09;13.50;99.90
46608;DHT22;32330;51.936;7.184;2023-05-10T04:39:36;13.50;99.90
46608;DHT22;32330;51.936;7.184;2023-05-10T04:42:04;13.50;99.90
46608;DHT22;32330;51.936;7.184;2023-05-10T04:44:31;13.50;99.90
46608;DHT22;32330;51.936;7.184;2023-05-10T04:46:58;13.50;99.90
46608;DHT22;32330;51.936;7.184;2023-05-10T04:49:25;13.50;99.90
46608;DHT22;32330;51.936;7.184;2023-05-10T04:51:52;13.50;99.90
46608;DHT22;32330;51.936;7.184;2023-05-10T04:54:19;13.50;99.90
46608;DHT22;32330;51.936;7.184;2023-05-10T04:56:47;13.60;99.90
46608;DHT22;32330;51.936;7.184;2023-05-10T04:59:16;13.60;99.90
46608;DHT22;32330;51.936;7.184;2023-05-10T05:01:42;13.60;99.90
46608;DHT22;32330;51.936;7.184;2023-05-10T05:04:09;13.70;99.90
46608;DHT22;32330;51.936;7.184;2023-05-10T05:06:36;13.60;99.90
46608;DHT22;32330;51.936;7.184;2023-05-10T05:09:03;13.70;99.90
46608;DHT22;32330;51.936;7.184;2023-05-10T05:11:30;13.70;99.90
46608;DHT22;32330;51.936;7.184;2023-05-10T05:13:56;13.70;99.90
46608;DHT22;32330;51.936;7.184;2023-05-10T05:16:25;13.70;99.90
46608;DHT22;32330;51.936;7.184;2023-05-10T05:18:52;13.70;99.90
46608;DHT22;32330;51.936;7.184;2023-05-10T05:21:19;13.70;99.90
46608;DHT22;32330;51.936;7.184;2023-05-10T05:23:46;13.60;99.90
46608;DHT22;32330;51.936;7.184;2023-05-10T05:26:13;13.70;99.90
46608;DHT22;32330;51.936;7.184;2023-05-10T05:28:40;13.60;99.90
46608;DHT22;32330;51.936;7.184;2023-05-10T05:31:07;13.60;99.90
46608;DHT22;32330;51.936;7.184;2023-05-10T05:33:35;13.60;99.90
46608;DHT22;32330;51.936;7.184;2023-05-10T05:36:03;13.70;99.90
46608;DHT22;32330;51.936;7.184;2023-05-10T05:38:30;13.70;99.90
46608;DHT22;32330;51.936;7.184;2023-05-10T05:40:57;13.70;99.90
46608;DHT22;32330;51.936;7.184;2023-05-10T05:43:23;13.70;99.90
46608;DHT22;32330;51.936;7.184;2023-05-10T05:45:51;13.70;99.90
46608;DHT22;32330;51.936;7.184;2023-05-10T05:48:18;13.70;99.90
46608;DHT22;32330;51.936;7.184;2023-05-10T05:50:46;13.70;99.90
46608;DHT22;32330;51.936;7.184;2023-05-10T05:53:13;13.70;99.90
46608;DHT22;32330;51.936;7.184;2023-05-10T05:55:50;13.70;99.90
46608;DHT22;32330;51.936;7.184;2023-05-10T05:58:17;13.70;99.90
46608;DHT22;32330;51.936;7.184;2023-05-10T06:00:44;13.70;99.90
46608;DHT22;32330;51.936;7.184;2023-05-10T06:03:10;13.70;99.90
46608;DHT22;32330;51.936;7.184;2023-05-10T06:05:37;13.70;99.90
46608;DHT22;32330;51.936;7.184;2023-05-10T06:08:05;13.70;99.90
46608;DHT22;32330;51.936;7.184;2023-05-10T06:10:32;13.70;99.90
46608;DHT22;32330;51.936;7.184;2023-05-10T06:12:59;13.70;99.90
46608;DHT22;32330;51.936;7.184;2023-05-10T06:15:26;13.80;99.90
46608;DHT22;32330;51.936;7.184;2023-05-10T06:17:53;13.80;99.90
46608;DHT22;32330;51.936;7.184;2023-05-10T06:20:20;13.90;99.90
46608;DHT22;32330;51.936;7.184;2023-05-10T06:22:47;13.90;99.90
46608;DHT22;32330;51.936;7.184;2023-05-10T06:25:15;13.90;99.90
46608;DHT22;32330;51.936;7.184;2023-05-10T06:27:43;13.90;99.90
46608;DHT22;32330;51.936;7.184;2023-05-10T06:30:10;13.90;99.90
46608;DHT22;32330;51.936;7.184;2023-05-10T06:32:38;13.90;99.90
46608;DHT22;32330;51.936;7.184;2023-05-10T06:35:06;13.90;99.90
46608;DHT22;32330;51.936;7.184;2023-05-10T06:37:33;13.90;99.90
46608;DHT22;32330;51.936;7.184;2023-05-10T06:40:00;13.90;99.90
46608;DHT22;32330;51.936;7.184;2023-05-10T06:42:28;14.00;99.90
46608;DHT22;32330;51.936;7.184;2023-05-10T06:44:55;14.00;99.90
46608;DHT22;32330;51.936;7.184;2023-05-10T06:47:22;14.00;99.90
46608;DHT22;32330;51.936;7.184;2023-05-10T06:49:48;14.10;99.90
46608;DHT22;32330;51.936;7.184;2023-05-10T06:52:15;14.20;99.90
46608;DHT22;32330;51.936;7.184;2023-05-10T06:54:42;14.20;99.90
46608;DHT22;32330;51.936;7.184;2023-05-10T06:57:09;14.20;99.90
46608;DHT22;32330;51.936;7.184;2023-05-10T06:59:37;14.20;99.90
46608;DHT22;32330;51.936;7.184;2023-05-10T07:02:04;14.30;99.90
46608;DHT22;32330;51.936;7.184;2023-05-10T07:04:31;14.30;99.90
46608;DHT22;32330;51.936;7.184;2023-05-10T07:06:58;14.30;99.90
46608;DHT22;32330;51.936;7.184;2023-05-10T07:09:25;14.40;99.90
46608;DHT22;32330;51.936;7.184;2023-05-10T07:11:52;14.50;99.90
46608;DHT22;32330;51.936;7.184;2023-05-10T07:14:18;14.50;99.90
46608;DHT22;32330;51.936;7.184;2023-05-10T07:16:46;14.70;99.90
46608;DHT22;32330;51.936;7.184;2023-05-10T07:19:13;14.90;99.90
46608;DHT22;32330;51.936;7.184;2023-05-10T07:21:40;14.90;99.90
46608;DHT22;32330;51.936;7.184;2023-05-10T07:24:08;14.80;99.90
46608;DHT22;32330;51.936;7.184;2023-05-10T07:26:35;14.90;99.90
46608;DHT22;32330;51.936;7.184;2023-05-10T07:29:02;15.10;99.90
46608;DHT22;32330;51.936;7.184;2023-05-10T07:31:29;15.10;99.90
46608;DHT22;32330;51.936;7.184;2023-05-10T07:33:57;15.10;99.90
46608;DHT22;32330;51.936;7.184;2023-05-10T07:36:24;15.10;99.90
46608;DHT22;32330;51.936;7.184;2023-05-10T07:38:51;15.20;99.90
46608;DHT22;32330;51.936;7.184;2023-05-10T07:41:18;15.30;99.90
46608;DHT22;32330;51.936;7.184;2023-05-10T07:43:46;15.30;99.90
46608;DHT22;32330;51.936;7.184;2023-05-10T07:46:14;15.20;99.90
46608;DHT22;32330;51.936;7.184;2023-05-10T07:48:40;15.20;99.90
46608;DHT22;32330;51.936;7.184;2023-05-10T07:51:08;15.20;99.90
46608;DHT22;32330;51.936;7.184;2023-05-10T07:53:36;15.20;99.90
46608;DHT22;32330;51.936;7.184;2023-05-10T07:58:44;15.20;99.90
46608;DHT22;32330;51.936;7.184;2023-05-10T08:01:11;15.30;99.90
46608;DHT22;32330;51.936;7.184;2023-05-10T08:03:38;15.40;99.90
46608;DHT22;32330;51.936;7.184;2023-05-10T08:06:05;15.30;99.90
46608;DHT22;32330;51.936;7.184;2023-05-10T08:08:33;15.40;99.90
46608;DHT22;32330;51.936;7.184;2023-05-10T08:11:00;15.40;99.90
46608;DHT22;32330;51.936;7.184;2023-05-10T08:13:26;15.50;99.90
46608;DHT22;32330;51.936;7.184;2023-05-10T08:15:53;15.60;99.90
46608;DHT22;32330;51.936;7.184;2023-05-10T08:18:20;15.70;99.90
46608;DHT22;32330;51.936;7.184;2023-05-10T08:20:47;15.80;99.90
46608;DHT22;32330;51.936;7.184;2023-05-10T08:23:13;15.90;99.90
46608;DHT22;32330;51.936;7.184;2023-05-10T08:25:42;16.00;99.90
46608;DHT22;32330;51.936;7.184;2023-05-10T08:28:09;16.00;99.90
46608;DHT22;32330;51.936;7.184;2023-05-10T08:30:36;16.20;99.90
46608;DHT22;32330;51.936;7.184;2023-05-10T08:33:02;16.50;99.90
46608;DHT22;32330;51.936;7.184;2023-05-10T08:35:29;16.70;99.90
46608;DHT22;32330;51.936;7.184;2023-05-10T08:37:57;16.70;99.90
46608;DHT22;32330;51.936;7.184;2023-05-10T08:40:23;16.60;99.90
46608;DHT22;32330;51.936;7.184;2023-05-10T08:42:54;16.60;99.90
46608;DHT22;32330;51.936;7.184;2023-05-10T08:45:22;16.60;99.90
46608;DHT22;32330;51.936;7.184;2023-05-10T08:47:49;16.50;99.90
46608;DHT22;32330;51.936;7.184;2023-05-10T08:50:16;16.70;99.90
46608;DHT22;32330;51.936;7.184;2023-05-10T08:52:44;16.80;99.90
46608;DHT22;32330;51.936;7.184;2023-05-10T08:55:11;16.90;99.90
46608;DHT22;32330;51.936;7.184;2023-05-10T08:57:38;16.90;99.90
46608;DHT22;32330;51.936;7.184;2023-05-10T09:00:07;16.90;99.90
46608;DHT22;32330;51.936;7.184;2023-05-10T09:02:35;16.80;99.90
46608;DHT22;32330;51.936;7.184;2023-05-10T09:05:03;17.00;99.90
46608;DHT22;32330;51.936;7.184;2023-05-10T09:07:30;17.20;99.90
46608;DHT22;32330;51.936;7.184;2023-05-10T09:09:58;17.20;99.90
46608;DHT22;32330;51.936;7.184;2023-05-10T09:12:24;17.30;99.90
46608;DHT22;32330;51.936;7.184;2023-05-10T09:14:51;17.30;99.90
46608;DHT22;32330;51.936;7.184;2023-05-10T09:17:20;17.30;99.90
46608;DHT22;32330;51.936;7.184;2023-05-10T09:19:47;17.30;98.90
46608;DHT22;32330;51.936;7.184;2023-05-10T09:22:14;17.40;99.90
46608;DHT22;32330;51.936;7.184;2023-05-10T09:24:42;17.30;97.20
46608;DHT22;32330;51.936;7.184;2023-05-10T09:27:10;17.30;98.60
46608;DHT22;32330;51.936;7.184;2023-05-10T09:29:41;17.30;99.10
46608;DHT22;32330;51.936;7.184;2023-05-10T09:32:08;17.40;97.30
46608;DHT22;32330;51.936;7.184;2023-05-10T09:34:36;17.40;98.70
46608;DHT22;32330;51.936;7.184;2023-05-10T09:37:05;17.40;97.10
46608;DHT22;32330;51.936;7.184;2023-05-10T09:39:34;17.30;97.20
46608;DHT22;32330;51.936;7.184;2023-05-10T09:42:01;17.20;99.10
46608;DHT22;32330;51.936;7.184;2023-05-10T09:44:30;17.20;99.50
46608;DHT22;32330;51.936;7.184;2023-05-10T09:46:57;17.30;99.90
46608;DHT22;32330;51.936;7.184;2023-05-10T09:49:24;17.40;97.70
46608;DHT22;32330;51.936;7.184;2023-05-10T09:52:00;17.30;93.40
46608;DHT22;32330;51.936;7.184;2023-05-10T09:54:28;17.30;93.80
46608;DHT22;32330;51.936;7.184;2023-05-10T09:56:54;17.40;93.30
46608;DHT22;32330;51.936;7.184;2023-05-10T09:59:21;17.30;91.30
46608;DHT22;32330;51.936;7.184;2023-05-10T10:01:51;17.40;95.50
46608;DHT22;32330;51.936;7.184;2023-05-10T10:04:18;17.40;96.60
46608;DHT22;32330;51.936;7.184;2023-05-10T10:06:46;17.70;93.90
46608;DHT22;32330;51.936;7.184;2023-05-10T10:09:14;17.70;95.20
46608;DHT22;32330;51.936;7.184;2023-05-10T10:11:42;17.80;91.90
46608;DHT22;32330;51.936;7.184;2023-05-10T10:14:09;17.80;95.70
46608;DHT22;32330;51.936;7.184;2023-05-10T10:16:37;17.90;92.50
46608;DHT22;32330;51.936;7.184;2023-05-10T10:19:04;17.80;92.60
46608;DHT22;32330;51.936;7.184;2023-05-10T10:21:32;17.90;94.00
46608;DHT22;32330;51.936;7.184;2023-05-10T10:23:59;17.70;97.70
46608;DHT22;32330;51.936;7.184;2023-05-10T10:26:27;17.60;95.00
46608;DHT22;32330;51.936;7.184;2023-05-10T10:28:57;17.30;97.60
46608;DHT22;32330;51.936;7.184;2023-05-10T10:31:27;17.20;98.90
46608;DHT22;32330;51.936;7.184;2023-05-10T10:34:00;16.90;97.30
46608;DHT22;32330;51.936;7.184;2023-05-10T10:36:28;17.00;99.90
46608;DHT22;32330;51.936;7.184;2023-05-10T10:38:59;16.90;99.90
46608;DHT22;32330;51.936;7.184;2023-05-10T10:41:31;17.20;99.90
46608;DHT22;32330;51.936;7.184;2023-05-10T10:49:31;16.90;99.90
46608;DHT22;32330;51.936;7.184;2023-05-10T10:52:15;16.70;99.90
46608;DHT22;32330;51.936;7.184;2023-05-10T10:54:46;16.80;99.90
46608;DHT22;32330;51.936;7.184;2023-05-10T10:57:17;16.90;99.90
46608;DHT22;32330;51.936;7.184;2023-05-10T10:59:44;17.00;99.90
46608;DHT22;32330;51.936;7.184;2023-05-10T11:02:20;17.10;99.90
46608;DHT22;32330;51.936;7.184;2023-05-10T11:04:58;17.30;99.90
46608;DHT22;32330;51.936;7.184;2023-05-10T11:07:26;17.30;96.10
46608;DHT22;32330;51.936;7.184;2023-05-10T11:09:53;17.30;94.40
46608;DHT22;32330;51.936;7.184;2023-05-10T11:12:21;17.70;96.30
46608;DHT22;32330;51.936;7.184;2023-05-10T11:14:49;17.80;96.00
46608;DHT22;32330;51.936;7.184;2023-05-10T11:17:22;17.90;94.60
46608;DHT22;32330;51.936;7.184;2023-05-10T11:22:31;18.40;91.20
46608;DHT22;32330;51.936;7.184;2023-05-10T11:25:15;18.20;88.80
46608;DHT22;32330;51.936;7.184;2023-05-10T11:27:43;18.20;90.20
46608;DHT22;32330;51.936;7.184;2023-05-10T11:30:11;18.30;92.90
46608;DHT22;32330;51.936;7.184;2023-05-10T11:32:40;18.60;88.50
46608;DHT22;32330;51.936;7.184;2023-05-10T11:35:07;18.80;75.90
46608;DHT22;32330;51.936;7.184;2023-05-10T11:37:34;18.70;72.20
46608;DHT22;32330;51.936;7.184;2023-05-10T11:40:01;18.50;63.90
46608;DHT22;32330;51.936;7.184;2023-05-10T11:42:29;18.50;59.40
46608;DHT22;32330;51.936;7.184;2023-05-10T11:44:57;19.10;81.20
46608;DHT22;32330;51.936;7.184;2023-05-10T11:47:23;19.10;41.00
46608;DHT22;32330;51.936;7.184;2023-05-10T11:49:50;19.10;1.00
46608;DHT22;32330;51.936;7.184;2023-05-10T11:52:18;19.20;1.00
46608;DHT22;32330;51.936;7.184;2023-05-10T11:54:45;19.40;12.70
46608;DHT22;32330;51.936;7.184;2023-05-10T11:57:17;19.70;25.40
46608;DHT22;32330;51.936;7.184;2023-05-10T11:59:44;19.90;26.70
46608;DHT22;32330;51.936;7.184;2023-05-10T12:02:13;19.90;34.30
46608;DHT22;32330;51.936;7.184;2023-05-10T12:04:40;20.00;23.70
46608;DHT22;32330;51.936;7.184;2023-05-10T12:07:07;20.50;10.80
46608;DHT22;32330;51.936;7.184;2023-05-10T12:09:34;20.40;5.50
46608;DHT22;32330;51.936;7.184;2023-05-10T12:12:01;20.20;8.10
46608;DHT22;32330;51.936;7.184;2023-05-10T12:14:28;19.90;14.60
46608;DHT22;32330;51.936;7.184;2023-05-10T12:16:58;19.50;14.80
46608;DHT22;32330;51.936;7.184;2023-05-10T12:19:27;19.30;1.00
46608;DHT22;32330;51.936;7.184;2023-05-10T12:21:53;19.10;1.00
46608;DHT22;32330;51.936;7.184;2023-05-10T12:24:20;19.00;1.00
46608;DHT22;32330;51.936;7.184;2023-05-10T12:26:47;19.20;1.00
46608;DHT22;32330;51.936;7.184;2023-05-10T12:29:14;19.40;1.00
46608;DHT22;32330;51.936;7.184;2023-05-10T12:31:54;19.50;1.00
46608;DHT22;32330;51.936;7.184;2023-05-10T12:34:22;19.50;1.00
46608;DHT22;32330;51.936;7.184;2023-05-10T12:36:51;19.60;1.00
46608;DHT22;32330;51.936;7.184;2023-05-10T12:39:18;20.00;1.00
46608;DHT22;32330;51.936;7.184;2023-05-10T12:41:44;20.40;1.00
46608;DHT22;32330;51.936;7.184;2023-05-10T12:44:12;20.90;1.00
46608;DHT22;32330;51.936;7.184;2023-05-10T12:46:39;20.90;1.10
46608;DHT22;32330;51.936;7.184;2023-05-10T12:49:06;20.60;29.90
46608;DHT22;32330;51.936;7.184;2023-05-10T12:51:33;20.40;34.90
46608;DHT22;32330;51.936;7.184;2023-05-10T12:54:01;19.80;30.50
46608;DHT22;32330;51.936;7.184;2023-05-10T12:56:28;19.40;26.30
46608;DHT22;32330;51.936;7.184;2023-05-10T12:58:55;19.40;1.00
46608;DHT22;32330;51.936;7.184;2023-05-10T13:01:22;19.30;1.00
46608;DHT22;32330;51.936;7.184;2023-05-10T13:03:48;19.40;1.00
46608;DHT22;32330;51.936;7.184;2023-05-10T13:06:16;19.50;1.00
46608;DHT22;32330;51.936;7.184;2023-05-10T13:08:42;19.60;1.00
46608;DHT22;32330;51.936;7.184;2023-05-10T13:11:10;19.70;1.00
46608;DHT22;32330;51.936;7.184;2023-05-10T13:13:41;19.40;1.00
46608;DHT22;32330;51.936;7.184;2023-05-10T13:16:08;19.50;1.00
46608;DHT22;32330;51.936;7.184;2023-05-10T13:18:35;19.50;1.00
46608;DHT22;32330;51.936;7.184;2023-05-10T13:21:02;19.40;1.00
46608;DHT22;32330;51.936;7.184;2023-05-10T13:23:29;19.30;1.00
46608;DHT22;32330;51.936;7.184;2023-05-10T13:25:56;19.30;1.10
46608;DHT22;32330;51.936;7.184;2023-05-10T13:28:24;19.20;2.70
46608;DHT22;32330;51.936;7.184;2023-05-10T13:30:51;19.10;4.00
46608;DHT22;32330;51.936;7.184;2023-05-10T13:33:18;19.30;13.00
46608;DHT22;32330;51.936;7.184;2023-05-10T13:35:45;19.60;6.70
46608;DHT22;32330;51.936;7.184;2023-05-10T13:38:12;19.60;1.00
46608;DHT22;32330;51.936;7.184;2023-05-10T13:40:39;19.50;10.20
46608;DHT22;32330;51.936;7.184;2023-05-10T13:43:06;19.30;5.20
46608;DHT22;32330;51.936;7.184;2023-05-10T13:45:34;19.00;3.20
46608;DHT22;32330;51.936;7.184;2023-05-10T13:48:01;19.10;1.00
46608;DHT22;32330;51.936;7.184;2023-05-10T13:50:28;19.30;1.00
46608;DHT22;32330;51.936;7.184;2023-05-10T13:52:55;19.10;1.00
46608;DHT22;32330;51.936;7.184;2023-05-10T13:55:22;19.00;1.00
46608;DHT22;32330;51.936;7.184;2023-05-10T13:57:49;19.10;1.00
46608;DHT22;32330;51.936;7.184;2023-05-10T14:00:16;19.20;1.00
46608;DHT22;32330;51.936;7.184;2023-05-10T14:02:45;19.10;1.00
46608;DHT22;32330;51.936;7.184;2023-05-10T14:05:12;19.00;1.00
46608;DHT22;32330;51.936;7.184;2023-05-10T14:07:39;19.00;1.00
46608;DHT22;32330;51.936;7.184;2023-05-10T14:10:06;18.90;1.00
46608;DHT22;32330;51.936;7.184;2023-05-10T14:12:34;19.00;1.00
46608;DHT22;32330;51.936;7.184;2023-05-10T14:15:01;19.10;1.00
46608;DHT22;32330;51.936;7.184;2023-05-10T14:17:28;19.00;1.00
46608;DHT22;32330;51.936;7.184;2023-05-10T14:19:56;19.10;1.00
46608;DHT22;32330;51.936;7.184;2023-05-10T14:22:23;19.40;3.50
46608;DHT22;32330;51.936;7.184;2023-05-10T14:24:50;19.70;2.80
46608;DHT22;32330;51.936;7.184;2023-05-10T14:27:17;20.00;8.30
46608;DHT22;32330;51.936;7.184;2023-05-10T14:29:44;20.00;10.90
46608;DHT22;32330;51.936;7.184;2023-05-10T14:32:11;20.10;17.30
46608;DHT22;32330;51.936;7.184;2023-05-10T14:34:38;20.40;21.70
46608;DHT22;32330;51.936;7.184;2023-05-10T14:37:06;20.50;12.50
46608;DHT22;32330;51.936;7.184;2023-05-10T14:39:33;20.40;19.10
46608;DHT22;32330;51.936;7.184;2023-05-10T14:42:00;20.60;25.30
46608;DHT22;32330;51.936;7.184;2023-05-10T14:44:28;20.60;22.90
46608;DHT22;32330;51.936;7.184;2023-05-10T14:46:55;20.30;27.20
46608;DHT22;32330;51.936;7.184;2023-05-10T14:49:22;20.20;25.40
46608;DHT22;32330;51.936;7.184;2023-05-10T14:51:51;20.30;27.40
46608;DHT22;32330;51.936;7.184;2023-05-10T14:54:19;20.40;27.20
46608;DHT22;32330;51.936;7.184;2023-05-10T14:56:46;20.40;26.10
46608;DHT22;32330;51.936;7.184;2023-05-10T14:59:15;20.30;24.20
46608;DHT22;32330;51.936;7.184;2023-05-10T15:01:42;20.30;29.80
46608;DHT22;32330;51.936;7.184;2023-05-10T15:04:09;20.20;26.60
46608;DHT22;32330;51.936;7.184;2023-05-10T15:06:36;20.20;27.40
46608;DHT22;32330;51.936;7.184;2023-05-10T15:09:03;20.30;28.60
46608;DHT22;32330;51.936;7.184;2023-05-10T15:11:31;20.50;26.50
46608;DHT22;32330;51.936;7.184;2023-05-10T15:13:58;20.50;27.50
46608;DHT22;32330;51.936;7.184;2023-05-10T15:16:25;20.50;26.80
46608;DHT22;32330;51.936;7.184;2023-05-10T15:18:52;20.70;23.30
46608;DHT22;32330;51.936;7.184;2023-05-10T15:21:19;20.70;23.70
46608;DHT22;32330;51.936;7.184;2023-05-10T15:23:46;21.10;28.10
46608;DHT22;32330;51.936;7.184;2023-05-10T15:26:13;21.20;26.60
46608;DHT22;32330;51.936;7.184;2023-05-10T15:28:41;21.20;25.40
46608;DHT22;32330;51.936;7.184;2023-05-10T15:31:09;21.10;37.90
46608;DHT22;32330;51.936;7.184;2023-05-10T15:33:36;21.10;31.40
46608;DHT22;32330;51.936;7.184;2023-05-10T15:36:03;21.10;32.30
46608;DHT22;32330;51.936;7.184;2023-05-10T15:38:30;21.10;33.00
46608;DHT22;32330;51.936;7.184;2023-05-10T15:40:58;21.10;32.00
46608;DHT22;32330;51.936;7.184;2023-05-10T15:43:25;21.20;31.30
46608;DHT22;32330;51.936;7.184;2023-05-10T15:45:53;21.30;33.00
46608;DHT22;32330;51.936;7.184;2023-05-10T15:48:21;21.30;37.10
46608;DHT22;32330;51.936;7.184;2023-05-10T15:50:48;21.30;26.50
46608;DHT22;32330;51.936;7.184;2023-05-10T15:53:15;21.40;32.30
46608;DHT22;32330;51.936;7.184;2023-05-10T15:55:41;21.20;29.20
46608;DHT22;32330;51.936;7.184;2023-05-10T15:58:08;21.10;33.80
46608;DHT22;32330;51.936;7.184;2023-05-10T16:00:37;21.00;30.00
46608;DHT22;32330;51.936;7.184;2023-05-10T16:03:06;21.10;31.00
46608;DHT22;32330;51.936;7.184;2023-05-10T16:05:33;21.30;32.60
46608;DHT22;32330;51.936;7.184;2023-05-10T16:08:00;21.50;38.10
46608;DHT22;32330;51.936;7.184;2023-05-10T16:10:27;21.70;38.90
46608;DHT22;32330;51.936;7.184;2023-05-10T16:12:57;21.70;35.80
46608;DHT22;32330;51.936;7.184;2023-05-10T16:15:25;21.50;33.90
46608;DHT22;32330;51.936;7.184;2023-05-10T16:17:57;21.60;33.40
46608;DHT22;32330;51.936;7.184;2023-05-10T16:20:29;21.40;34.50
46608;DHT22;32330;51.936;7.184;2023-05-10T16:22:58;21.70;35.40
46608;DHT22;32330;51.936;7.184;2023-05-10T16:25:30;21.80;33.50
46608;DHT22;32330;51.936;7.184;2023-05-10T16:27:57;21.70;34.80
46608;DHT22;32330;51.936;7.184;2023-05-10T16:30:24;21.60;36.80
46608;DHT22;32330;51.936;7.184;2023-05-10T16:32:52;21.20;35.60
46608;DHT22;32330;51.936;7.184;2023-05-10T16:35:19;21.20;30.00
46608;DHT22;32330;51.936;7.184;2023-05-10T16:37:47;21.10;35.00
46608;DHT22;32330;51.936;7.184;2023-05-10T16:40:14;21.10;33.70
46608;DHT22;32330;51.936;7.184;2023-05-10T16:42:41;20.80;36.40
46608;DHT22;32330;51.936;7.184;2023-05-10T16:45:08;20.90;36.90
46608;DHT22;32330;51.936;7.184;2023-05-10T16:47:35;20.90;35.10
46608;DHT22;32330;51.936;7.184;2023-05-10T16:50:03;20.80;38.30
46608;DHT22;32330;51.936;7.184;2023-05-10T16:52:30;20.70;38.30
46608;DHT22;32330;51.936;7.184;2023-05-10T16:54:59;20.70;39.60
46608;DHT22;32330;51.936;7.184;2023-05-10T16:57:28;20.60;39.90
46608;DHT22;32330;51.936;7.184;2023-05-10T16:59:57;20.40;40.00
46608;DHT22;32330;51.936;7.184;2023-05-10T17:02:26;20.00;41.50
46608;DHT22;32330;51.936;7.184;2023-05-10T17:04:53;19.80;45.40
46608;DHT22;32330;51.936;7.184;2023-05-10T17:07:22;19.90;43.10
46608;DHT22;32330;51.936;7.184;2023-05-10T17:09:49;19.90;44.60
46608;DHT22;32330;51.936;7.184;2023-05-10T17:12:17;19.90;42.90
46608;DHT22;32330;51.936;7.184;2023-05-10T17:14:44;19.90;41.60
46608;DHT22;32330;51.936;7.184;2023-05-10T17:17:11;19.70;43.70
46608;DHT22;32330;51.936;7.184;2023-05-10T17:19:39;19.70;38.80
46608;DHT22;32330;51.936;7.184;2023-05-10T17:22:12;19.70;42.40
46608;DHT22;32330;51.936;7.184;2023-05-10T17:24:39;19.60;43.30
46608;DHT22;32330;51.936;7.184;2023-05-10T17:27:09;19.50;42.50
46608;DHT22;32330;51.936;7.184;2023-05-10T17:29:37;19.40;43.50
46608;DHT22;32330;51.936;7.184;2023-05-10T17:32:04;19.40;44.50
46608;DHT22;32330;51.936;7.184;2023-05-10T17:34:33;19.40;46.90
46608;DHT22;32330;51.936;7.184;2023-05-10T17:37:01;19.40;49.60
46608;DHT22;32330;51.936;7.184;2023-05-10T17:39:28;19.40;48.10
46608;DHT22;32330;51.936;7.184;2023-05-10T17:41:55;19.30;48.90
46608;DHT22;32330;51.936;7.184;2023-05-10T17:44:22;19.20;47.80
46608;DHT22;32330;51.936;7.184;2023-05-10T17:46:51;19.00;42.50
46608;DHT22;32330;51.936;7.184;2023-05-10T17:49:19;19.10;41.50
46608;DHT22;32330;51.936;7.184;2023-05-10T17:51:46;19.00;28.40
46608;DHT22;32330;51.936;7.184;2023-05-10T17:54:17;19.00;19.00
46608;DHT22;32330;51.936;7.184;2023-05-10T17:57:03;18.90;10.70
46608;DHT22;32330;51.936;7.184;2023-05-10T17:59:30;18.80;8.40
46608;DHT22;32330;51.936;7.184;2023-05-10T18:01:58;18.60;1.00
46608;DHT22;32330;51.936;7.184;2023-05-10T18:04:25;18.70;1.00
46608;DHT22;32330;51.936;7.184;2023-05-10T18:06:52;18.50;1.00
46608;DHT22;32330;51.936;7.184;2023-05-10T18:09:25;18.30;1.00
46608;DHT22;32330;51.936;7.184;2023-05-10T18:11:52;18.20;1.00
46608;DHT22;32330;51.936;7.184;2023-05-10T18:14:19;18.40;1.00
46608;DHT22;32330;51.936;7.184;2023-05-10T18:16:47;18.30;1.00
46608;DHT22;32330;51.936;7.184;2023-05-10T18:19:35;18.30;1.00
46608;DHT22;32330;51.936;7.184;2023-05-10T18:22:01;18.00;1.00
46608;DHT22;32330;51.936;7.184;2023-05-10T18:24:28;17.80;1.00
46608;DHT22;32330;51.936;7.184;2023-05-10T18:26:55;17.80;1.00
46608;DHT22;32330;51.936;7.184;2023-05-10T18:29:32;17.80;1.00
46608;DHT22;32330;51.936;7.184;2023-05-10T18:31:58;17.80;1.00
46608;DHT22;32330;51.936;7.184;2023-05-10T18:34:25;17.60;1.00
46608;DHT22;32330;51.936;7.184;2023-05-10T18:36:53;17.60;1.00
46608;DHT22;32330;51.936;7.184;2023-05-10T18:39:20;17.30;10.10
46608;DHT22;32330;51.936;7.184;2023-05-10T18:41:48;17.30;13.80
46608;DHT22;32330;51.936;7.184;2023-05-10T18:44:15;17.30;17.40
46608;DHT22;32330;51.936;7.184;2023-05-10T18:46:43;17.30;18.30
46608;DHT22;32330;51.936;7.184;2023-05-10T18:49:10;17.30;22.40
46608;DHT22;32330;51.936;7.184;2023-05-10T18:51:37;17.30;28.10
46608;DHT22;32330;51.936;7.184;2023-05-10T18:54:05;17.20;28.60
46608;DHT22;32330;51.936;7.184;2023-05-10T18:56:32;17.20;33.40
46608;DHT22;32330;51.936;7.184;2023-05-10T18:58:59;17.10;38.90
46608;DHT22;32330;51.936;7.184;2023-05-10T19:01:26;17.00;46.10
46608;DHT22;32330;51.936;7.184;2023-05-10T19:03:53;16.80;58.40
46608;DHT22;32330;51.936;7.184;2023-05-10T19:06:19;17.00;58.00
46608;DHT22;32330;51.936;7.184;2023-05-10T19:08:46;16.80;66.60
46608;DHT22;32330;51.936;7.184;2023-05-10T19:11:15;16.80;69.00
46608;DHT22;32330;51.936;7.184;2023-05-10T19:13:41;16.80;70.90
46608;DHT22;32330;51.936;7.184;2023-05-10T19:16:10;16.80;72.70
46608;DHT22;32330;51.936;7.184;2023-05-10T19:18:37;16.80;76.50
46608;DHT22;32330;51.936;7.184;2023-05-10T19:21:04;16.70;72.90
46608;DHT22;32330;51.936;7.184;2023-05-10T19:23:32;16.60;82.10
46608;DHT22;32330;51.936;7.184;2023-05-10T19:25:59;16.50;87.70
46608;DHT22;32330;51.936;7.184;2023-05-10T19:28:27;16.50;89.70
46608;DHT22;32330;51.936;7.184;2023-05-10T19:30:54;16.50;87.90
46608;DHT22;32330;51.936;7.184;2023-05-10T19:33:21;16.40;91.50
46608;DHT22;32330;51.936;7.184;2023-05-10T19:35:48;16.30;93.00